createdAt,value
2018-05-16T00:01:27.090Z,99.90
2018-05-16T00:03:54.966Z,99.90
2018-05-16T00:06:22.705Z,99.90
2018-05-16T00:08:50.454Z,99.90
2018-05-16T00:11:18.228Z,99.90
2018-05-16T00:13:45.963Z,99.90
2018-05-16T00:16:13.730Z,99.90
2018-05-16T00:18:41.472Z,99.90
2018-05-16T00:21:09.394Z,99.90
2018-05-16T00:23:37.975Z,99.90
2018-05-16T00:26:06.654Z,99.90
2018-05-16T00:28:34.518Z,99.90
2018-05-16T00:31:03.206Z,99.90
2018-05-16T00:33:31.070Z,99.90
2018-05-16T00:35:58.901Z,99.90
2018-05-16T00:38:26.696Z,99.90
2018-05-16T00:40:54.660Z,99.90
2018-05-16T00:43:23.313Z,99.90
2018-05-16T00:45:51.121Z,99.90
2018-05-16T00:48:18.973Z,99.90
2018-05-16T00:50:58.609Z,99.90
2018-05-16T00:53:27.190Z,99.90
2018-05-16T00:55:55.779Z,99.90
2018-05-16T00:58:23.632Z,99.90
2018-05-16T01:00:52.215Z,99.90
2018-05-16T01:03:20.082Z,99.90
2018-05-16T01:05:47.948Z,99.90
2018-05-16T01:08:15.781Z,99.90
2018-05-16T01:10:43.672Z,99.90
2018-05-16T01:13:11.538Z,99.90
2018-05-16T01:15:40.219Z,99.90
2018-05-16T01:18:08.799Z,99.90
2018-05-16T01:20:36.570Z,99.90
2018-05-16T01:23:04.323Z,99.90
2018-05-16T01:25:32.127Z,99.90
2018-05-16T01:27:59.901Z,99.90
2018-05-16T01:30:27.815Z,99.90
2018-05-16T01:32:56.370Z,99.90
2018-05-16T01:35:24.260Z,99.90
2018-05-16T01:37:52.840Z,99.90
2018-05-16T01:40:20.704Z,99.90
2018-05-16T01:42:49.225Z,99.90
2018-05-16T01:45:17.045Z,99.90
2018-05-16T01:47:44.911Z,99.90
2018-05-16T01:50:12.778Z,99.90
2018-05-16T01:52:40.638Z,99.90
2018-05-16T01:55:08.503Z,99.90
2018-05-16T01:57:37.188Z,99.90
2018-05-16T02:00:05.769Z,99.90
2018-05-16T02:02:33.731Z,99.90
2018-05-16T02:05:01.499Z,99.90
2018-05-16T02:07:30.075Z,99.90
2018-05-16T02:09:57.940Z,99.90
2018-05-16T02:12:26.525Z,99.90
2018-05-16T02:14:54.387Z,99.90
2018-05-16T02:17:22.149Z,99.90
2018-05-16T02:19:50.833Z,99.90
2018-05-16T02:22:19.429Z,99.90
2018-05-16T02:24:47.243Z,99.90
2018-05-16T02:27:15.042Z,99.90
2018-05-16T02:29:43.721Z,99.90
2018-05-16T02:32:12.303Z,99.90
2018-05-16T02:34:40.167Z,99.90
2018-05-16T02:37:08.748Z,99.90
2018-05-16T02:39:36.488Z,99.90
2018-05-16T02:42:04.259Z,99.90
2018-05-16T02:44:32.004Z,99.90
2018-05-16T02:46:59.777Z,99.90
2018-05-16T02:49:27.525Z,99.90
2018-05-16T02:51:55.300Z,99.90
2018-05-16T02:54:23.073Z,99.90
2018-05-16T02:56:50.943Z,99.90
2018-05-16T02:59:19.524Z,99.90
2018-05-16T03:01:48.213Z,99.90
2018-05-16T03:04:16.077Z,99.90
2018-05-16T03:06:43.938Z,99.90
2018-05-16T03:09:11.763Z,99.90
2018-05-16T03:11:39.529Z,99.90
2018-05-16T03:14:07.439Z,99.90
2018-05-16T03:16:35.259Z,99.90
2018-05-16T03:19:03.160Z,99.90
2018-05-16T03:21:31.736Z,99.90
2018-05-16T03:24:00.422Z,99.90
2018-05-16T03:26:29.001Z,99.90
2018-05-16T03:28:57.685Z,99.90
2018-05-16T03:31:25.548Z,99.90
2018-05-16T03:33:54.231Z,99.90
2018-05-16T03:36:22.812Z,99.90
2018-05-16T03:38:50.676Z,99.90
2018-05-16T03:41:19.264Z,99.90
2018-05-16T03:43:47.852Z,99.90
2018-05-16T03:46:16.521Z,99.90
2018-05-16T03:48:44.388Z,99.90
2018-05-16T03:51:13.074Z,99.90
2018-05-16T03:53:40.934Z,99.90
2018-05-16T03:56:09.616Z,99.90
2018-05-16T03:58:49.071Z,99.90
2018-05-16T04:01:28.528Z,99.90
2018-05-16T04:17:22.505Z,99.90
2018-05-16T04:19:50.409Z,99.90
2018-05-16T04:22:18.268Z,99.90
2018-05-16T04:24:46.134Z,99.90
2018-05-16T04:27:13.999Z,99.90
2018-05-16T04:29:41.867Z,99.90
2018-05-16T04:32:09.724Z,99.90
2018-05-16T04:34:37.587Z,99.90
2018-05-16T04:37:05.453Z,99.90
2018-05-16T04:39:33.328Z,99.90
2018-05-16T04:42:01.899Z,99.90
2018-05-16T04:44:29.770Z,99.90
2018-05-16T04:46:57.629Z,99.90
2018-05-16T04:49:25.504Z,99.90
2018-05-16T04:51:53.355Z,99.90
2018-05-16T04:54:21.180Z,99.90
2018-05-16T04:56:49.083Z,99.90
2018-05-16T04:59:16.949Z,99.90
2018-05-16T05:01:45.632Z,99.90
2018-05-16T05:04:13.493Z,99.90
2018-05-16T05:06:41.361Z,99.90
2018-05-16T05:09:09.190Z,99.90
2018-05-16T05:11:37.187Z,99.90
2018-05-16T05:14:05.876Z,99.90
2018-05-16T05:16:33.699Z,99.90
2018-05-16T05:19:01.437Z,99.90
2018-05-16T05:21:30.294Z,99.90
2018-05-16T05:23:58.134Z,99.90
2018-05-16T05:26:25.864Z,99.90
2018-05-16T05:28:53.652Z,99.90
2018-05-16T05:31:21.433Z,99.90
2018-05-16T05:33:49.298Z,99.90
2018-05-16T05:36:17.061Z,99.90
2018-05-16T05:38:44.923Z,99.90
2018-05-16T05:41:12.662Z,99.90
2018-05-16T05:43:40.553Z,99.90
2018-05-16T05:46:08.413Z,99.90
2018-05-16T05:48:36.282Z,99.90
2018-05-16T05:51:04.146Z,99.90
2018-05-16T05:53:31.906Z,99.90
2018-05-16T05:55:59.772Z,99.90
2018-05-16T05:58:27.636Z,99.90
2018-05-16T06:00:55.499Z,99.90
2018-05-16T06:03:23.360Z,99.90
2018-05-16T06:05:52.054Z,99.90
2018-05-16T06:08:19.910Z,99.90
2018-05-16T06:10:47.771Z,99.90
2018-05-16T06:13:15.637Z,99.90
2018-05-16T06:15:43.705Z,99.90
2018-05-16T06:18:11.576Z,99.90
2018-05-16T06:20:39.435Z,99.90
2018-05-16T06:23:08.232Z,99.90
2018-05-16T06:25:36.190Z,99.90
2018-05-16T06:28:04.024Z,99.90
2018-05-16T06:30:31.922Z,99.90
2018-05-16T06:32:59.781Z,99.90
2018-05-16T06:35:27.528Z,99.90
2018-05-16T06:37:55.308Z,99.90
2018-05-16T06:40:23.100Z,97.20
2018-05-16T06:42:50.872Z,99.90
2018-05-16T06:45:19.371Z,99.90
2018-05-16T06:47:47.154Z,99.90
2018-05-16T06:50:14.936Z,99.90
2018-05-16T06:52:42.795Z,99.90
2018-05-16T06:55:10.555Z,99.90
2018-05-16T06:57:38.316Z,99.90
2018-05-16T07:00:06.088Z,99.90
2018-05-16T07:02:33.945Z,99.90
2018-05-16T07:05:01.808Z,96.10
2018-05-16T07:07:29.699Z,96.40
2018-05-16T07:09:57.535Z,96.00
2018-05-16T07:12:25.406Z,88.30
2018-05-16T07:14:53.966Z,88.80
2018-05-16T07:17:21.856Z,91.70
2018-05-16T07:19:49.666Z,95.80
2018-05-16T07:22:17.477Z,94.20
2018-05-16T07:24:45.305Z,94.80
2018-05-16T07:27:13.084Z,97.90
2018-05-16T07:29:40.967Z,95.10
2018-05-16T07:32:08.825Z,91.10
2018-05-16T07:34:36.691Z,87.80
2018-05-16T07:37:04.556Z,85.70
2018-05-16T07:39:32.419Z,78.20
2018-05-16T07:42:00.248Z,72.00
2018-05-16T07:44:27.986Z,72.20
2018-05-16T07:46:55.783Z,71.70
2018-05-16T07:49:23.674Z,61.30
2018-05-16T07:51:51.459Z,52.80
2018-05-16T07:54:19.214Z,46.50
2018-05-16T07:56:46.966Z,43.20
2018-05-16T07:59:14.739Z,45.80
2018-05-16T08:01:42.487Z,48.90
2018-05-16T08:04:10.273Z,49.90
2018-05-16T08:06:38.825Z,44.10
2018-05-16T08:09:06.686Z,44.10
2018-05-16T08:11:34.430Z,46.10
2018-05-16T08:14:02.228Z,48.40
2018-05-16T08:16:30.084Z,50.90
2018-05-16T08:18:57.940Z,53.50
2018-05-16T08:21:25.804Z,52.60
2018-05-16T08:23:53.688Z,52.80
2018-05-16T08:26:22.355Z,56.00
2018-05-16T08:28:52.569Z,55.50
2018-05-16T08:31:20.342Z,52.00
2018-05-16T08:33:48.195Z,50.50
2018-05-16T08:36:15.964Z,49.30
2018-05-16T08:38:43.698Z,44.60
2018-05-16T08:41:11.488Z,40.30
2018-05-16T08:43:39.219Z,36.90
2018-05-16T08:46:06.960Z,37.30
2018-05-16T08:48:34.723Z,37.90
2018-05-16T08:51:02.458Z,34.50
2018-05-16T08:53:30.985Z,25.00
2018-05-16T08:55:58.755Z,24.90
2018-05-16T08:58:26.519Z,23.60
2018-05-16T09:00:54.394Z,25.00
2018-05-16T09:03:22.258Z,24.70
2018-05-16T09:05:49.998Z,23.00
2018-05-16T09:08:17.799Z,23.40
2018-05-16T09:10:45.653Z,22.80
2018-05-16T09:13:13.435Z,24.10
2018-05-16T09:15:41.974Z,28.50
2018-05-16T09:18:09.753Z,28.50
2018-05-16T09:20:37.574Z,30.40
2018-05-16T09:23:05.309Z,27.20
2018-05-16T09:25:33.087Z,29.60
2018-05-16T09:28:00.906Z,32.00
2018-05-16T09:30:28.677Z,32.90
2018-05-16T09:32:56.446Z,34.50
2018-05-16T09:35:25.021Z,32.90
2018-05-16T09:37:52.882Z,32.80
2018-05-16T09:40:21.543Z,32.10
2018-05-16T09:42:49.244Z,32.30
2018-05-16T09:45:17.799Z,34.00
2018-05-16T09:47:45.656Z,34.10
2018-05-16T09:50:13.389Z,34.80
2018-05-16T09:52:41.181Z,34.00
2018-05-16T09:55:08.912Z,33.30
2018-05-16T09:57:36.807Z,33.70
2018-05-16T10:00:04.678Z,35.60
2018-05-16T10:02:32.534Z,36.50
2018-05-16T10:05:00.264Z,36.70
2018-05-16T10:07:28.177Z,36.90
2018-05-16T10:09:56.141Z,36.30
2018-05-16T10:12:23.996Z,35.20
2018-05-16T10:14:51.757Z,34.00
2018-05-16T10:17:19.618Z,34.20
2018-05-16T10:19:47.481Z,34.20
2018-05-16T10:22:15.214Z,34.90
2018-05-16T10:24:43.013Z,35.00
2018-05-16T10:27:10.745Z,36.00
2018-05-16T10:29:38.496Z,34.90
2018-05-16T10:32:06.235Z,35.20
2018-05-16T10:34:34.081Z,33.30
2018-05-16T10:37:01.771Z,32.40
2018-05-16T10:39:29.528Z,32.60
2018-05-16T10:41:57.333Z,33.60
2018-05-16T10:44:25.581Z,35.20
2018-05-16T10:46:53.370Z,34.70
2018-05-16T10:49:21.105Z,35.90
2018-05-16T10:51:49.012Z,36.50
2018-05-16T10:54:16.762Z,32.80
2018-05-16T10:56:44.597Z,31.90
2018-05-16T10:59:12.332Z,30.70
2018-05-16T11:01:40.847Z,30.00
2018-05-16T11:04:08.568Z,30.00
2018-05-16T11:06:37.521Z,29.80
2018-05-16T11:09:06.087Z,29.80
2018-05-16T11:11:33.978Z,28.80
2018-05-16T11:14:01.762Z,28.30
2018-05-16T11:16:30.263Z,29.30
2018-05-16T11:18:58.012Z,29.30
2018-05-16T11:21:26.569Z,29.40
2018-05-16T11:23:54.313Z,29.30
2018-05-16T11:26:22.052Z,29.00
2018-05-16T11:28:49.838Z,28.20
2018-05-16T11:31:17.560Z,26.80
2018-05-16T11:33:45.371Z,26.40
2018-05-16T11:36:13.112Z,26.80
2018-05-16T11:38:40.876Z,26.00
2018-05-16T11:41:08.627Z,24.70
2018-05-16T11:43:36.349Z,25.50
2018-05-16T11:46:04.099Z,25.90
2018-05-16T11:48:31.833Z,26.70
2018-05-16T11:50:59.581Z,26.70
2018-05-16T11:53:27.311Z,26.40
2018-05-16T11:55:55.127Z,26.00
2018-05-16T11:58:22.970Z,26.60
2018-05-16T12:00:50.734Z,26.50
2018-05-16T12:03:18.463Z,26.40
2018-05-16T12:05:46.257Z,27.60
2018-05-16T12:08:13.989Z,27.00
2018-05-16T12:10:41.748Z,26.10
2018-05-16T12:13:09.542Z,26.40
2018-05-16T12:15:37.406Z,27.50
2018-05-16T12:18:05.275Z,28.30
2018-05-16T12:20:33.138Z,28.60
2018-05-16T12:23:00.898Z,29.30
2018-05-16T12:25:28.759Z,30.50
2018-05-16T12:27:56.682Z,30.90
2018-05-16T12:30:24.413Z,30.80
2018-05-16T12:32:52.963Z,33.00
2018-05-16T12:35:20.705Z,32.40
2018-05-16T12:37:48.491Z,33.00
2018-05-16T12:40:16.357Z,34.30
2018-05-16T12:42:56.099Z,39.20
2018-05-16T12:45:23.976Z,55.60
2018-05-16T12:47:51.824Z,91.20
2018-05-16T12:50:19.586Z,99.90
2018-05-16T12:52:47.331Z,99.90
2018-05-16T12:55:15.100Z,99.90
2018-05-16T12:57:42.831Z,99.90
2018-05-16T13:00:10.644Z,99.90
2018-05-16T13:02:38.368Z,99.90
2018-05-16T13:05:06.166Z,99.90
2018-05-16T13:07:33.909Z,99.90
2018-05-16T13:10:01.644Z,99.90
2018-05-16T13:12:29.403Z,99.90
2018-05-16T13:14:57.132Z,99.90
2018-05-16T13:17:25.649Z,99.90
2018-05-16T13:19:53.388Z,99.90
2018-05-16T13:22:22.030Z,99.90
2018-05-16T13:24:49.763Z,99.90
2018-05-16T13:27:17.531Z,99.90
2018-05-16T13:29:45.280Z,99.90
2018-05-16T13:32:13.041Z,99.90
2018-05-16T13:34:40.813Z,99.90
2018-05-16T13:37:08.602Z,99.90
2018-05-16T13:39:36.341Z,99.90
2018-05-16T13:42:04.117Z,92.00
2018-05-16T13:44:31.879Z,91.00
2018-05-16T13:46:59.650Z,93.50
2018-05-16T13:49:27.519Z,95.30
2018-05-16T13:51:55.380Z,80.00
2018-05-16T13:54:23.245Z,79.10
2018-05-16T13:56:51.104Z,80.10
2018-05-16T13:59:18.932Z,81.00
2018-05-16T14:01:46.728Z,78.70
2018-05-16T14:04:14.549Z,76.40
2018-05-16T14:06:42.351Z,72.40
2018-05-16T14:09:10.218Z,69.80
2018-05-16T14:11:38.084Z,69.90
2018-05-16T14:14:05.947Z,68.60
2018-05-16T14:16:33.814Z,74.80
2018-05-16T14:19:01.550Z,67.20
2018-05-16T14:21:29.304Z,68.30
2018-05-16T14:23:57.063Z,71.80
2018-05-16T14:26:25.670Z,62.70
2018-05-16T14:28:53.432Z,60.60
2018-05-16T14:31:21.191Z,63.80
2018-05-16T14:33:48.917Z,59.40
2018-05-16T14:36:16.677Z,70.30
2018-05-16T14:38:44.585Z,64.30
2018-05-16T14:41:12.555Z,60.30
2018-05-16T14:43:40.379Z,57.20
2018-05-16T14:46:08.177Z,60.60
2018-05-16T14:48:36.009Z,55.00
2018-05-16T14:51:04.583Z,49.90
2018-05-16T14:53:32.796Z,49.80
2018-05-16T14:56:00.662Z,50.00
2018-05-16T14:58:28.526Z,50.80
2018-05-16T15:00:56.388Z,50.50
2018-05-16T15:03:24.180Z,48.20
2018-05-16T15:05:52.691Z,44.60
2018-05-16T15:08:20.421Z,43.90
2018-05-16T15:10:49.036Z,42.10
2018-05-16T15:13:16.836Z,42.10
2018-05-16T15:15:44.595Z,38.70
2018-05-16T15:18:12.335Z,41.70
2018-05-16T15:20:40.227Z,42.30
2018-05-16T15:23:08.088Z,42.00
2018-05-16T15:25:35.952Z,41.70
2018-05-16T15:28:03.917Z,41.00
2018-05-16T15:30:31.788Z,41.10
2018-05-16T15:32:59.672Z,41.60
2018-05-16T15:35:27.617Z,42.70
2018-05-16T15:37:55.480Z,42.10
2018-05-16T15:40:23.341Z,39.70
2018-05-16T15:42:51.207Z,44.70
2018-05-16T15:45:18.952Z,42.70
2018-05-16T15:47:46.712Z,42.20
2018-05-16T15:50:14.594Z,44.30
2018-05-16T15:52:42.349Z,43.80
2018-05-16T15:55:10.181Z,43.30
2018-05-16T15:57:38.081Z,45.50
2018-05-16T16:00:05.948Z,45.40
2018-05-16T16:02:33.754Z,45.30
2018-05-16T16:05:02.266Z,49.80
2018-05-16T16:07:30.053Z,49.80
2018-05-16T16:09:57.917Z,49.20
2018-05-16T16:12:25.780Z,48.10
2018-05-16T16:14:53.654Z,49.50
2018-05-16T16:17:21.509Z,49.70
2018-05-16T16:19:49.373Z,50.40
2018-05-16T16:22:17.235Z,49.20
2018-05-16T16:24:45.102Z,47.30
2018-05-16T16:27:12.932Z,48.30
2018-05-16T16:29:40.838Z,49.00
2018-05-16T16:32:08.814Z,49.80
2018-05-16T16:34:36.660Z,49.60
2018-05-16T16:37:04.525Z,50.90
2018-05-16T16:39:32.656Z,51.20
2018-05-16T16:42:00.502Z,52.00
2018-05-16T16:44:29.002Z,50.90
2018-05-16T16:46:56.785Z,51.00
2018-05-16T16:49:24.517Z,51.10
2018-05-16T16:51:52.290Z,52.10
2018-05-16T16:54:20.052Z,52.30
2018-05-16T16:56:47.822Z,52.60
2018-05-16T16:59:15.540Z,52.20
2018-05-16T17:01:44.031Z,53.30
2018-05-16T17:04:15.440Z,54.10
2018-05-16T17:06:43.164Z,54.20
2018-05-16T17:09:10.993Z,54.00
2018-05-16T17:11:39.514Z,56.90
2018-05-16T17:14:07.347Z,56.90
2018-05-16T17:16:35.089Z,58.90
2018-05-16T17:19:03.632Z,65.40
2018-05-16T17:21:31.378Z,65.40
2018-05-16T17:23:59.161Z,66.80
2018-05-16T17:26:26.908Z,76.50
2018-05-16T17:28:54.714Z,85.60
2018-05-16T17:31:22.527Z,84.40
2018-05-16T17:33:50.307Z,90.50
2018-05-16T17:36:18.083Z,90.40
2018-05-16T17:38:45.844Z,90.10
2018-05-16T17:41:13.611Z,95.20
2018-05-16T17:43:41.340Z,97.10
2018-05-16T17:46:09.156Z,99.70
2018-05-16T17:48:37.659Z,99.90
2018-05-16T17:51:05.455Z,99.90
2018-05-16T17:53:33.180Z,99.90
2018-05-16T17:56:00.976Z,99.90
2018-05-16T17:58:28.700Z,99.90
2018-05-16T18:00:56.556Z,99.90
2018-05-16T18:03:24.300Z,99.90
2018-05-16T18:05:52.834Z,99.90
2018-05-16T18:08:20.923Z,99.90
2018-05-16T18:10:48.663Z,99.90
2018-05-16T18:26:56.244Z,99.90
2018-05-16T18:29:24.120Z,99.90
2018-05-16T18:31:51.861Z,99.90
2018-05-16T18:34:19.625Z,99.90
2018-05-16T18:36:47.392Z,99.90
2018-05-16T18:39:15.125Z,99.90
2018-05-16T18:41:42.899Z,99.90
2018-05-16T18:44:10.667Z,99.90
2018-05-16T18:46:38.448Z,99.90
2018-05-16T18:49:06.176Z,99.90
2018-05-16T18:51:33.952Z,99.90
2018-05-16T18:54:01.739Z,99.90
2018-05-16T18:56:29.560Z,99.90
2018-05-16T18:58:57.333Z,99.90
2018-05-16T19:01:25.124Z,99.90
2018-05-16T19:03:52.852Z,99.90
2018-05-16T19:06:20.593Z,99.90
2018-05-16T19:08:49.210Z,99.90
2018-05-16T19:11:17.672Z,99.90
2018-05-16T19:13:45.448Z,99.90
2018-05-16T19:16:13.208Z,99.90
2018-05-16T19:18:40.973Z,99.90
2018-05-16T19:21:08.706Z,99.90
2018-05-16T19:23:36.476Z,99.90
2018-05-16T19:26:04.224Z,99.90
2018-05-16T19:28:32.763Z,99.90
2018-05-16T19:31:00.501Z,99.90
2018-05-16T19:33:28.316Z,99.90
2018-05-16T19:35:56.847Z,99.90
2018-05-16T19:38:24.638Z,99.90
2018-05-16T19:40:52.406Z,99.90
2018-05-16T19:43:20.173Z,99.90
2018-05-16T19:45:47.960Z,99.90
2018-05-16T19:48:15.689Z,99.90
2018-05-16T19:50:43.461Z,99.90
2018-05-16T19:53:11.193Z,99.90
2018-05-16T19:55:38.989Z,99.90
2018-05-16T19:58:07.501Z,99.90
2018-05-16T20:00:35.289Z,99.90
2018-05-16T20:03:03.028Z,99.90
2018-05-16T20:05:30.781Z,99.90
2018-05-16T20:07:58.599Z,99.90
2018-05-16T20:10:26.331Z,99.90
2018-05-16T20:12:54.089Z,99.90
2018-05-16T20:15:21.908Z,99.90
2018-05-16T20:17:50.149Z,99.90
2018-05-16T20:20:18.674Z,99.90
2018-05-16T20:22:46.623Z,99.90
2018-05-16T20:25:15.121Z,99.90
2018-05-16T20:27:42.987Z,99.90
2018-05-16T20:30:10.732Z,99.90
2018-05-16T20:32:39.222Z,99.90
2018-05-16T20:35:07.003Z,99.90
2018-05-16T20:37:34.725Z,99.90
2018-05-16T20:40:03.313Z,99.90
2018-05-16T20:42:31.031Z,99.90
2018-05-16T20:44:58.801Z,99.90
2018-05-16T20:47:26.596Z,99.90
2018-05-16T20:49:55.124Z,99.90
2018-05-16T20:52:22.884Z,99.90
2018-05-16T20:54:50.693Z,99.90
2018-05-16T20:57:19.009Z,99.90
2018-05-16T20:59:46.823Z,99.90
2018-05-16T21:02:14.807Z,99.90
2018-05-16T21:04:43.313Z,99.90
2018-05-16T21:07:12.040Z,99.90
2018-05-16T21:09:40.473Z,99.90
2018-05-16T21:12:08.289Z,99.90
2018-05-16T21:14:36.035Z,99.90
2018-05-16T21:17:04.681Z,99.90
2018-05-16T21:19:32.461Z,99.90
2018-05-16T21:22:00.297Z,99.90
2018-05-16T21:24:28.028Z,99.90
2018-05-16T21:26:55.802Z,99.90
2018-05-16T21:29:24.348Z,99.90
2018-05-16T21:31:52.086Z,99.90
2018-05-16T21:34:19.852Z,99.90
2018-05-16T21:36:47.584Z,99.90
2018-05-16T21:39:15.363Z,99.90
2018-05-16T21:41:43.112Z,99.90
2018-05-16T21:44:10.900Z,99.90
2018-05-16T21:46:38.645Z,99.90
2018-05-16T21:49:06.377Z,99.90
2018-05-16T21:51:34.942Z,99.90
2018-05-16T21:54:02.669Z,99.90
2018-05-16T21:56:30.708Z,99.90
2018-05-16T21:58:58.452Z,99.90
2018-05-16T22:01:27.157Z,99.90
2018-05-16T22:03:55.058Z,99.90
2018-05-16T22:06:22.888Z,99.90
2018-05-16T22:08:50.611Z,99.90
2018-05-16T22:11:19.163Z,99.90
2018-05-16T22:13:46.900Z,99.90
2018-05-16T22:16:14.624Z,99.90
2018-05-16T22:18:43.169Z,99.90
2018-05-16T22:21:10.899Z,99.90
2018-05-16T22:23:38.656Z,99.90
2018-05-16T22:26:06.388Z,99.90
2018-05-16T22:28:34.913Z,99.90
2018-05-16T22:31:08.312Z,99.90
2018-05-16T22:33:41.637Z,99.90
2018-05-16T22:36:14.952Z,99.90
2018-05-16T22:38:49.221Z,99.90
2018-05-16T22:41:22.541Z,99.90
2018-05-16T22:43:51.232Z,99.90
2018-05-16T22:46:19.789Z,99.90
2018-05-16T22:48:47.525Z,99.90
2018-05-16T22:51:15.305Z,99.90
2018-05-16T22:53:43.040Z,99.90
2018-05-16T22:56:10.817Z,99.90
2018-05-16T22:58:38.542Z,99.90
2018-05-16T23:01:06.298Z,99.90
2018-05-16T23:03:34.027Z,99.90
2018-05-16T23:06:01.784Z,99.90
2018-05-16T23:08:29.513Z,99.90
2018-05-16T23:10:57.301Z,99.90
2018-05-16T23:13:25.037Z,99.90
2018-05-16T23:15:52.793Z,99.90
2018-05-16T23:18:20.545Z,99.90
2018-05-16T23:20:48.273Z,99.90
2018-05-16T23:23:16.797Z,99.90
2018-05-16T23:25:44.519Z,99.90
2018-05-16T23:28:13.060Z,99.90
2018-05-16T23:30:40.802Z,99.90
2018-05-16T23:33:08.557Z,99.90
2018-05-16T23:35:36.308Z,99.90
2018-05-16T23:38:04.072Z,99.90
2018-05-16T23:40:31.799Z,99.90
2018-05-16T23:43:00.375Z,99.90
2018-05-16T23:45:28.877Z,99.90
2018-05-16T23:47:56.609Z,99.90
2018-05-16T23:50:24.373Z,99.90
2018-05-16T23:52:52.118Z,99.90
2018-05-16T23:55:19.873Z,99.90
2018-05-16T23:57:47.611Z,99.90
